Time;durP1;ratioP1;P1;durP2;ratioP2;P2;SDS_P1;SDS_P2;PMS_P1;PMS_P2;Temp;Humidity;BMP_temperature;BMP_pressure;BME280_temperature;BME280_humidity;BME280_pressure;Samples;Min_cycle;Max_cycle;Signal;HPM_P1;HPM_P2
2023/05/03 00:00:29;;;;;;;2.97;1.40;;;;;;;15.40;100.00;101713.88;2072389;28;20651;-64
2023/05/03 00:01:30;;;;;;;4.50;1.57;;;;;;;15.40;100.00;101725.84;2071632;28;20287;-64
2023/05/03 00:02:31;;;;;;;3.50;1.60;;;;;;;15.39;100.00;101723.47;2071334;28;20200;-64
2023/05/03 00:03:31;;;;;;;3.80;1.70;;;;;;;15.34;100.00;101716.44;2071678;28;20189;-63
2023/05/03 00:04:33;;;;;;;7.50;1.60;;;;;;;15.27;100.00;101718.59;2071444;28;20770;-64
2023/05/03 00:05:33;;;;;;;4.50;1.67;;;;;;;15.25;100.00;101712.63;2071891;28;20260;-63
2023/05/03 00:06:33;;;;;;;6.07;1.87;;;;;;;15.20;100.00;101730.72;2071556;28;20733;-64
2023/05/03 00:07:34;;;;;;;4.23;1.60;;;;;;;15.26;100.00;101726.16;2071128;28;20243;-63
2023/05/03 00:08:34;;;;;;;3.70;1.70;;;;;;;15.21;100.00;101728.72;2072271;28;20248;-64
2023/05/03 00:09:35;;;;;;;2.80;1.50;;;;;;;15.24;100.00;101725.84;2071647;28;20196;-64
2023/05/03 00:10:35;;;;;;;4.27;1.50;;;;;;;15.05;100.00;101693.22;2071201;28;20212;-63
2023/05/03 00:11:36;;;;;;;4.43;1.77;;;;;;;15.07;100.00;101704.72;2071394;28;20571;-64
2023/05/03 00:12:40;;;;;;;5.67;1.90;;;;;;;15.26;100.00;101740.13;2071151;28;20554;-64
2023/05/03 00:13:41;;;;;;;3.50;1.70;;;;;;;14.58;100.00;101618.66;2071956;28;20229;-64
2023/05/03 00:14:42;;;;;;;6.57;1.50;;;;;;;15.34;100.00;101737.97;2071493;28;20420;-64
2023/05/03 00:15:42;;;;;;;4.63;1.60;;;;;;;14.75;100.00;101645.34;2071730;28;20502;-64
2023/05/03 00:16:42;;;;;;;4.57;1.50;;;;;;;15.37;100.00;101739.91;2071303;28;20186;-63
2023/05/03 00:17:43;;;;;;;4.10;1.67;;;;;;;15.40;100.00;101747.38;2071103;28;20186;-64
2023/05/03 00:18:44;;;;;;;5.90;1.80;;;;;;;15.40;100.00;101750.97;2070809;28;20273;-64
2023/05/03 00:19:44;;;;;;;5.60;1.50;;;;;;;15.44;100.00;101748.88;2069725;28;20665;-63
2023/05/03 00:20:44;;;;;;;6.67;1.63;;;;;;;15.47;100.00;101750.78;2071756;28;20274;-64
2023/05/03 00:21:45;;;;;;;5.13;1.70;;;;;;;15.47;100.00;101742.41;2071601;28;20561;-64
2023/05/03 00:22:46;;;;;;;4.07;1.70;;;;;;;15.49;100.00;101744.78;2071123;28;20237;-63
2023/05/03 00:23:46;;;;;;;4.47;1.57;;;;;;;15.38;100.00;101733.09;2071579;28;20177;-64
2023/05/03 00:24:49;;;;;;;7.63;1.80;;;;;;;15.32;100.00;101735.59;2071464;28;20250;-64
2023/05/03 00:25:54;;;;;;;6.17;1.80;;;;;;;15.20;100.00;101725.13;2072613;28;20558;-64
2023/05/03 00:26:55;;;;;;;3.13;1.47;;;;;;;15.25;100.00;101744.16;2064213;28;20425;-64
2023/05/03 00:27:56;;;;;;;4.30;1.83;;;;;;;15.15;100.00;101739.63;2070365;28;20530;-64
2023/05/03 00:28:56;;;;;;;3.97;1.60;;;;;;;15.16;100.00;101737.63;2072357;28;20283;-64
2023/05/03 00:29:57;;;;;;;5.17;1.67;;;;;;;15.14;100.00;101738.06;2072908;28;20453;-64
2023/05/03 00:31:05;;;;;;;3.33;1.67;;;;;;;14.54;100.00;101632.69;2072212;28;20217;-63
2023/05/03 00:32:07;;;;;;;6.27;1.87;;;;;;;15.16;100.00;101729.25;2072722;28;20201;-64
2023/05/03 00:33:07;;;;;;;2.87;1.60;;;;;;;15.26;100.00;101731.00;2072425;28;20454;-63
2023/05/03 00:34:08;;;;;;;5.23;1.60;;;;;;;15.30;100.00;101737.25;2073173;28;20507;-63
2023/05/03 00:35:08;;;;;;;3.40;1.77;;;;;;;15.29;100.00;101736.47;2073144;28;20182;-64
2023/05/03 00:36:10;;;;;;;5.57;1.67;;;;;;;15.30;100.00;101743.63;2073848;28;20179;-64
2023/05/03 00:37:11;;;;;;;4.43;1.80;;;;;;;15.32;100.00;101741.16;2073385;28;20271;-64
2023/05/03 00:38:14;;;;;;;3.77;1.67;;;;;;;15.33;100.00;101733.63;2072465;28;20521;-64
2023/05/03 00:39:14;;;;;;;4.13;1.60;;;;;;;15.34;100.00;101737.97;2073091;28;20202;-64
2023/05/03 00:40:17;;;;;;;4.23;1.73;;;;;;;15.35;100.00;101739.53;2072374;28;20478;-64
2023/05/03 00:41:17;;;;;;;5.17;1.60;;;;;;;15.35;100.00;101743.13;2072679;28;20185;-64
2023/05/03 00:42:18;;;;;;;3.50;1.60;;;;;;;15.07;100.00;101712.31;2073023;28;20468;-64
2023/05/03 00:43:18;;;;;;;4.47;1.80;;;;;;;15.16;100.00;101737.63;2072816;28;20184;-64
2023/05/03 00:44:19;;;;;;;4.80;2.00;;;;;;;15.10;100.00;101725.38;2072931;28;20201;-64
2023/05/03 00:45:19;;;;;;;4.43;1.70;;;;;;;15.13;100.00;101742.06;2073878;28;20188;-64
2023/05/03 00:46:20;;;;;;;5.17;1.70;;;;;;;14.98;100.00;101801.47;2073136;28;20204;-64
2023/05/03 00:47:21;;;;;;;2.70;1.80;;;;;;;15.14;100.00;101748.44;2072898;28;20203;-64
2023/05/03 00:48:21;;;;;;;4.13;1.70;;;;;;;15.10;100.00;101742.13;2072629;28;20192;-64
2023/05/03 00:49:25;;;;;;;5.63;2.00;;;;;;;15.00;100.00;101729.22;2073078;28;20601;-64
2023/05/03 00:50:26;;;;;;;6.17;1.63;;;;;;;15.08;100.00;101736.22;2072445;28;20311;-63
2023/05/03 00:51:27;;;;;;;4.63;1.50;;;;;;;15.24;100.00;101764.94;2070241;28;20467;-64
2023/05/03 00:52:28;;;;;;;5.90;1.50;;;;;;;15.23;100.00;101755.00;2064206;28;20182;-63
2023/05/03 00:53:30;;;;;;;3.77;2.00;;;;;;;15.27;100.00;101768.84;2065395;28;20228;-64
2023/05/03 00:54:32;;;;;;;3.53;1.90;;;;;;;14.11;100.00;101618.16;2073630;28;20417;-64
2023/05/03 00:55:33;;;;;;;4.20;1.60;;;;;;;15.13;100.00;101772.78;2073071;28;20452;-64
2023/05/03 00:56:34;;;;;;;5.33;1.70;;;;;;;15.16;100.00;101768.34;2072834;28;20498;-64
2023/05/03 00:57:34;;;;;;;4.67;1.87;;;;;;;15.20;100.00;101769.81;2072660;28;20447;-64
2023/05/03 00:58:38;;;;;;;2.07;1.50;;;;;;;15.24;100.00;101766.94;2072641;28;20572;-65
2023/05/03 00:59:39;;;;;;;3.63;1.60;;;;;;;15.27;100.00;101771.66;2073075;28;20261;-63
2023/05/03 01:00:39;;;;;;;4.37;1.80;;;;;;;15.29;100.00;101774.78;2072348;28;20416;-64
2023/05/03 01:01:40;;;;;;;3.97;1.53;;;;;;;15.27;100.00;101766.84;2072814;28;20264;-64
2023/05/03 01:02:40;;;;;;;3.33;1.60;;;;;;;15.20;100.00;101761.44;2072277;28;20172;-64
2023/05/03 01:03:41;;;;;;;4.07;1.63;;;;;;;15.14;100.00;101743.66;2073848;28;20182;-64
2023/05/03 01:04:42;;;;;;;11.13;2.50;;;;;;;15.37;100.00;101773.44;2072819;28;20650;-63
2023/05/03 01:06:21;;;;;;;8.70;2.20;;;;;;;15.36;100.00;101783.03;2073092;28;20808;-64
2023/05/03 01:07:42;;;;;;;10.87;1.93;;;;;;;15.28;100.00;101764.84;2065296;28;20215;-64
2023/05/03 01:09:00;;;;;;;7.97;1.70;;;;;;;15.31;100.00;101791.91;2072385;28;20416;-64
2023/05/03 01:10:13;;;;;;;4.87;2.00;;;;;;;15.31;100.00;101789.13;2072867;28;20447;-64
2023/05/03 01:11:21;;;;;;;5.27;2.00;;;;;;;15.30;100.00;101793.09;2068251;28;20989;-64
2023/05/03 01:12:51;;;;;;;5.00;1.70;;;;;;;15.25;100.00;101794.41;2072685;28;20509;-63
2023/05/03 01:14:04;;;;;;;5.77;2.20;;;;;;;15.33;100.00;101800.66;2073082;28;20462;-64
2023/05/03 01:15:26;;;;;;;5.77;1.87;;;;;;;15.29;100.00;101797.13;2072867;28;20822;-64
2023/05/03 01:16:38;;;;;;;7.80;1.90;;;;;;;15.13;100.00;101794.31;2066851;28;20447;-64
2023/05/03 01:17:47;;;;;;;3.20;1.60;;;;;;;15.17;100.00;101806.22;2063949;28;20423;-64
2023/05/03 01:18:51;;;;;;;6.83;1.60;;;;;;;15.11;99.39;101805.16;2056788;28;20490;-64
2023/05/03 01:19:56;;;;;;;5.17;1.93;;;;;;;15.10;99.78;101803.56;2065007;28;20436;-64
2023/05/03 01:21:00;;;;;;;2.27;1.57;;;;;;;14.94;100.00;101786.81;2064992;28;20412;-64
2023/05/03 01:22:16;;;;;;;5.30;1.83;;;;;;;14.96;100.00;101803.91;2071270;28;20476;-64
2023/05/03 01:23:35;;;;;;;3.50;1.53;;;;;;;14.95;100.00;101802.31;2064629;28;20495;-64
2023/05/03 01:24:37;;;;;;;2.80;1.70;;;;;;;14.93;100.00;101804.78;2064925;28;20486;-64
2023/05/03 01:25:37;;;;;;;2.47;1.50;;;;;;;14.86;100.00;101810.53;2073813;28;20936;-64
2023/05/03 01:26:38;;;;;;;3.17;1.63;;;;;;;14.85;100.00;101808.97;2072661;28;20614;-64
2023/05/03 01:27:40;;;;;;;2.20;1.47;;;;;;;14.82;100.00;101805.03;2072536;28;20196;-64
2023/05/03 01:28:40;;;;;;;5.50;1.80;;;;;;;14.81;100.00;101811.81;2072604;28;20238;-64
2023/05/03 01:29:40;;;;;;;6.23;1.80;;;;;;;14.82;100.00;101801.44;2072481;28;20503;-64
2023/05/03 01:30:42;;;;;;;4.50;1.63;;;;;;;14.81;100.00;101811.81;2072290;28;20214;-64
2023/05/03 01:31:56;;;;;;;4.50;1.50;;;;;;;14.30;100.00;101728.09;2072396;28;20187;-64
2023/05/03 01:33:22;;;;;;;2.57;1.40;;;;;;;14.85;100.00;101814.53;2072179;28;20453;-64
2023/05/03 01:34:36;;;;;;;4.90;1.70;;;;;;;14.89;100.00;101812.44;2069752;28;20505;-64
2023/05/03 01:35:55;;;;;;;3.63;1.83;;;;;;;14.78;100.00;101800.72;2072220;28;20543;-64
2023/05/03 01:36:58;;;;;;;4.90;1.83;;;;;;;14.73;100.00;101807.63;2072632;28;20455;-64
2023/05/03 01:37:59;;;;;;;2.90;1.60;;;;;;;13.69;100.00;101640.56;2072354;28;20444;-64
2023/05/03 01:39:06;;;;;;;3.97;1.80;;;;;;;14.69;100.00;101808.91;2072504;28;20445;-64
2023/05/03 01:40:08;;;;;;;4.37;1.70;;;;;;;14.69;100.00;101804.13;2072014;28;20623;-64
2023/05/03 01:41:11;;;;;;;3.73;1.93;;;;;;;13.63;100.00;101654.19;2072420;28;20449;-64
2023/05/03 01:42:13;;;;;;;2.80;1.73;;;;;;;14.59;100.00;101804.34;2071976;28;20533;-64
2023/05/03 01:43:16;;;;;;;7.00;2.10;;;;;;;14.59;100.00;101807.13;2072182;28;20425;-64
2023/05/03 01:44:18;;;;;;;3.50;1.73;;;;;;;14.56;100.00;101803.19;2072402;28;20932;-63
2023/05/03 01:45:19;;;;;;;4.83;1.90;;;;;;;14.34;100.00;101771.41;2072628;28;20526;-64
2023/05/03 01:46:19;;;;;;;3.13;1.80;;;;;;;14.56;100.00;101808.00;2073347;28;20423;-64
2023/05/03 01:47:20;;;;;;;3.17;1.63;;;;;;;14.54;100.00;101811.22;2072454;28;20277;-64
2023/05/03 01:48:20;;;;;;;4.03;1.73;;;;;;;14.59;100.00;101807.13;2072469;28;20200;-63
2023/05/03 01:49:21;;;;;;;3.63;1.50;;;;;;;14.59;100.00;101807.91;2072683;28;20283;-64
2023/05/03 01:50:22;;;;;;;3.70;1.67;;;;;;;14.52;100.00;101804.50;2072215;28;20203;-64
2023/05/03 01:51:23;;;;;;;7.17;2.17;;;;;;;14.51;100.00;101806.47;2072174;28;20191;-64
2023/05/03 01:52:23;;;;;;;2.80;1.73;;;;;;;14.46;100.00;101809.81;2071917;28;20426;-64
2023/05/03 01:53:24;;;;;;;3.20;1.90;;;;;;;14.40;100.00;101808.72;2072328;28;20177;-64
2023/05/03 01:54:24;;;;;;;6.53;1.97;;;;;;;14.33;100.00;101806.09;2073219;28;20171;-64
2023/05/03 01:55:25;;;;;;;4.30;1.83;;;;;;;14.38;100.00;101807.56;2072665;28;20194;-63
2023/05/03 01:56:25;;;;;;;18.10;2.60;;;;;;;13.53;100.00;101665.56;2072538;28;20806;-63
2023/05/03 01:57:26;;;;;;;12.50;2.60;;;;;;;14.33;100.00;101811.66;2072166;28;20231;-64
2023/05/03 01:58:26;;;;;;;11.40;2.57;;;;;;;14.24;100.00;101803.06;2072555;28;20707;-63
2023/05/03 01:59:27;;;;;;;8.20;2.20;;;;;;;14.31;100.00;101807.72;2072517;28;20187;-64
2023/05/03 02:00:27;;;;;;;10.20;2.10;;;;;;;14.29;100.00;101829.69;2071811;28;20175;-64
2023/05/03 02:01:28;;;;;;;9.67;2.30;;;;;;;14.31;100.00;101814.09;2071978;28;20180;-64
2023/05/03 02:02:28;;;;;;;7.63;2.10;;;;;;;14.32;100.00;101803.72;2072493;28;20684;-63
2023/05/03 02:03:28;;;;;;;5.87;2.13;;;;;;;14.29;100.00;101802.56;2072377;28;20202;-64
2023/05/03 02:04:29;;;;;;;4.87;1.80;;;;;;;13.99;100.00;101760.16;2072528;28;20208;-64
2023/05/03 02:05:29;;;;;;;8.47;1.90;;;;;;;14.31;100.00;101802.94;2072595;28;20234;-64
2023/05/03 02:06:30;;;;;;;4.33;1.70;;;;;;;14.32;100.00;101803.72;2072200;28;20200;-64
2023/05/03 02:07:30;;;;;;;5.67;1.70;;;;;;;14.32;100.00;101801.72;2072130;28;20308;-63
2023/05/03 02:08:31;;;;;;;7.20;1.97;;;;;;;14.32;100.00;101804.50;2072324;28;20175;-64
2023/05/03 02:09:31;;;;;;;3.70;1.87;;;;;;;14.32;100.00;101801.72;2072812;28;20178;-64
2023/05/03 02:10:32;;;;;;;3.37;1.70;;;;;;;14.40;100.00;101803.13;2071882;28;20210;-64
2023/05/03 02:11:32;;;;;;;2.97;1.53;;;;;;;14.38;100.00;101793.63;2072842;28;20188;-64
2023/05/03 02:12:33;;;;;;;3.87;1.70;;;;;;;13.87;100.00;101724.56;2071095;28;20277;-64
2023/05/03 02:13:35;;;;;;;5.30;1.90;;;;;;;14.43;100.00;101798.69;2072595;28;20227;-64
2023/05/03 02:14:36;;;;;;;5.77;1.70;;;;;;;14.44;100.00;101792.69;2072022;28;20724;-64
2023/05/03 02:15:36;;;;;;;5.30;2.20;;;;;;;14.47;100.00;101791.06;2072716;28;20822;-64
2023/05/03 02:16:36;;;;;;;4.00;1.90;;;;;;;14.43;100.00;101776.38;2072103;28;20668;-63
2023/05/03 02:17:38;;;;;;;3.73;1.90;;;;;;;13.54;100.00;101650.41;2071440;28;20291;-64
2023/05/03 02:18:38;;;;;;;3.60;1.83;;;;;;;14.42;100.00;101795.16;2071326;28;20521;-64
2023/05/03 02:19:39;;;;;;;4.20;1.70;;;;;;;14.30;100.00;101769.91;2065210;28;20484;-64
2023/05/03 02:20:44;;;;;;;3.97;1.70;;;;;;;14.38;100.00;101788.84;2071175;28;20215;-64
2023/05/03 02:21:44;;;;;;;4.23;1.90;;;;;;;14.32;100.00;101792.56;2072345;28;20628;-63
2023/05/03 02:22:45;;;;;;;3.50;1.80;;;;;;;14.19;100.00;101777.69;2071198;28;20452;-64
2023/05/03 02:23:45;;;;;;;3.90;1.83;;;;;;;13.30;100.00;101637.75;2072370;28;20566;-64
2023/05/03 02:24:46;;;;;;;4.60;1.60;;;;;;;14.41;100.00;101792.78;2072159;28;20740;-63
2023/05/03 02:25:46;;;;;;;3.77;1.70;;;;;;;14.38;100.00;101802.78;2072297;28;20221;-64
2023/05/03 02:26:47;;;;;;;4.70;1.70;;;;;;;14.37;100.00;101800.44;2071966;28;20283;-64
2023/05/03 02:27:47;;;;;;;6.30;2.43;;;;;;;14.41;100.00;101801.16;2072534;28;20666;-64
2023/05/03 02:28:48;;;;;;;3.13;1.80;;;;;;;14.47;100.00;101799.41;2072971;28;20200;-63
2023/05/03 02:29:48;;;;;;;4.93;2.13;;;;;;;14.55;100.00;101798.06;2072537;28;20196;-64
2023/05/03 02:30:49;;;;;;;3.50;1.70;;;;;;;14.54;100.00;101797.28;2071655;28;20213;-63
2023/05/03 02:31:49;;;;;;;4.73;2.10;;;;;;;14.53;100.00;101795.69;2071941;28;20525;-64
2023/05/03 02:32:50;;;;;;;6.57;1.70;;;;;;;14.46;100.00;101784.72;2071556;28;20280;-64
2023/05/03 02:33:50;;;;;;;5.30;2.00;;;;;;;13.97;100.00;101702.06;2072059;28;20527;-64
2023/05/03 02:34:50;;;;;;;96.93;7.53;;;;;;;14.51;100.00;101775.03;2072069;28;20561;-64
2023/05/03 02:35:51;;;;;;;23.17;3.50;;;;;;;14.47;100.00;101786.28;2072318;28;20213;-63
2023/05/03 02:36:51;;;;;;;8.87;2.10;;;;;;;14.46;100.00;101778.31;2072767;28;20180;-64
2023/05/03 02:37:52;;;;;;;4.47;1.70;;;;;;;14.30;100.00;101786.66;2072031;28;20670;-64
2023/05/03 02:38:52;;;;;;;4.60;1.60;;;;;;;14.20;100.00;101782.84;2072021;28;20207;-64
2023/05/03 02:39:53;;;;;;;4.17;1.90;;;;;;;14.18;100.00;101764.94;2072228;28;20780;-64
2023/05/03 02:40:53;;;;;;;4.97;2.13;;;;;;;14.24;100.00;101766.06;2071603;28;20203;-64
2023/05/03 02:41:53;;;;;;;10.27;3.33;;;;;;;14.23;100.00;101782.00;2071799;28;20228;-64
2023/05/03 02:42:54;;;;;;;6.83;2.27;;;;;;;12.61;100.00;101520.97;2071829;28;20265;-64
2023/05/03 02:43:54;;;;;;;5.97;2.20;;;;;;;13.96;100.00;101733.94;2071767;28;20181;-64
2023/05/03 02:44:55;;;;;;;3.87;2.23;;;;;;;14.04;100.00;101760.44;2072903;28;20187;-64
2023/05/03 02:45:56;;;;;;;5.03;2.00;;;;;;;14.01;100.00;101766.88;2072253;28;20211;-64
2023/05/03 02:46:56;;;;;;;3.03;1.90;;;;;;;14.07;100.00;101775.53;2072117;28;20201;-63
2023/05/03 02:47:57;;;;;;;4.97;2.20;;;;;;;14.02;100.00;101773.22;2071834;28;20456;-63
2023/05/03 02:48:58;;;;;;;18.07;3.30;;;;;;;13.51;100.00;101695.81;2072183;28;20285;-64
2023/05/03 02:49:58;;;;;;;8.27;2.47;;;;;;;13.54;100.00;101684.63;2072186;28;25398;-64
2023/05/03 02:50:59;;;;;;;5.03;2.33;;;;;;;13.98;100.00;101758.59;2071329;28;20198;-64
2023/05/03 02:51:59;;;;;;;3.17;1.97;;;;;;;14.05;100.00;101758.44;2071250;28;20444;-64
2023/05/03 02:52:59;;;;;;;4.07;2.17;;;;;;;14.07;100.00;101756.00;2072377;28;20587;-64
2023/05/03 02:54:00;;;;;;;5.63;2.10;;;;;;;14.06;100.00;101762.81;2071801;28;20198;-63
2023/05/03 02:55:01;;;;;;;4.50;2.30;;;;;;;13.90;100.00;101732.06;2071851;28;20650;-63
2023/05/03 02:56:01;;;;;;;5.93;2.20;;;;;;;14.07;100.00;101764.38;2071932;28;20193;-64
2023/05/03 02:57:03;;;;;;;7.77;2.43;;;;;;;13.95;100.00;101748.31;2072127;28;20273;-64
2023/05/03 02:58:03;;;;;;;5.77;2.10;;;;;;;14.03;100.00;101760.88;2071752;28;20250;-64
2023/05/03 02:59:04;;;;;;;3.63;2.10;;;;;;;13.75;100.00;101741.91;2072401;28;20425;-64
2023/05/03 03:00:05;;;;;;;4.73;2.10;;;;;;;13.99;100.00;101777.66;2071684;28;20554;-64
2023/05/03 03:01:05;;;;;;;6.13;2.30;;;;;;;13.92;100.00;101807.66;2072560;28;20219;-64
2023/05/03 03:02:06;;;;;;;4.10;2.30;;;;;;;13.88;100.00;101810.53;2071704;28;20455;-64
2023/05/03 03:03:06;;;;;;;3.97;1.90;;;;;;;12.88;100.00;101653.19;2070778;28;20196;-63
2023/05/03 03:04:07;;;;;;;3.23;2.17;;;;;;;13.75;100.00;101787.28;2070971;28;20207;-63
2023/05/03 03:05:08;;;;;;;6.00;2.57;;;;;;;13.85;100.00;101789.09;2068126;28;20537;-63
2023/05/03 03:06:08;;;;;;;6.77;2.50;;;;;;;13.89;100.00;101794.59;2072042;28;20530;-64
2023/05/03 03:07:08;;;;;;;5.10;2.13;;;;;;;13.85;100.00;101793.88;2071854;28;20202;-63
2023/05/03 03:08:09;;;;;;;4.27;2.30;;;;;;;13.95;100.00;101817.97;2071447;28;20252;-63
2023/05/03 03:09:09;;;;;;;4.70;2.30;;;;;;;13.94;100.00;101813.63;2072918;28;20655;-63
2023/05/03 03:10:10;;;;;;;4.73;2.13;;;;;;;13.99;100.00;101827.06;2071970;28;20635;-64
2023/05/03 03:11:10;;;;;;;5.07;2.30;;;;;;;14.01;100.00;101832.97;2071732;28;20757;-64
2023/05/03 03:12:10;;;;;;;3.47;2.00;;;;;;;13.98;100.00;101825.50;2071472;28;20743;-64
2023/05/03 03:13:11;;;;;;;4.17;2.10;;;;;;;13.98;100.00;101823.47;2071683;28;20204;-63
2023/05/03 03:14:11;;;;;;;6.00;2.23;;;;;;;14.03;100.00;101825.00;2071585;28;20309;-63
2023/05/03 03:15:12;;;;;;;3.27;2.10;;;;;;;14.00;100.00;101829.44;2071857;28;20271;-64
2023/05/03 03:16:12;;;;;;;3.00;1.90;;;;;;;14.03;100.00;101830.56;2071811;28;20181;-63
2023/05/03 03:17:13;;;;;;;4.57;1.97;;;;;;;13.82;100.00;101822.56;2072524;28;20189;-63
2023/05/03 03:18:13;;;;;;;4.03;2.00;;;;;;;13.99;100.00;101838.22;2071941;28;20258;-63
2023/05/03 03:19:13;;;;;;;5.10;2.20;;;;;;;14.02;100.00;101838.13;2072050;28;20276;-63
2023/05/03 03:20:14;;;;;;;5.63;2.13;;;;;;;13.98;100.00;101834.63;2066277;28;20202;-64
2023/05/03 03:21:15;;;;;;;4.17;2.23;;;;;;;13.64;100.00;101766.41;2067909;28;20204;-63
2023/05/03 03:22:15;;;;;;;4.83;2.10;;;;;;;14.01;100.00;101825.41;2071284;28;20195;-63
2023/05/03 03:23:16;;;;;;;3.13;1.77;;;;;;;13.80;100.00;101797.16;2071224;28;20205;-63
2023/05/03 03:24:16;;;;;;;5.07;2.10;;;;;;;13.93;100.00;101837.91;2071774;28;20173;-63
2023/05/03 03:25:17;;;;;;;3.27;1.87;;;;;;;13.94;100.00;101844.28;2072320;28;20175;-64
2023/05/03 03:26:17;;;;;;;5.43;1.93;;;;;;;13.92;100.00;101832.75;2072137;28;20681;-63
2023/05/03 03:27:18;;;;;;;4.57;1.70;;;;;;;13.91;100.00;101823.63;2063917;28;20197;-63
2023/05/03 03:28:18;;;;;;;2.80;2.10;;;;;;;13.95;100.00;101827.13;2063235;28;20677;-64
2023/05/03 03:29:18;;;;;;;4.70;2.10;;;;;;;13.95;100.00;101840.25;2068509;28;20789;-63
2023/05/03 03:30:19;;;;;;;4.50;1.87;;;;;;;13.90;100.00;101830.41;2071657;28;20204;-63
2023/05/03 03:31:21;;;;;;;6.20;2.10;;;;;;;13.96;100.00;101834.28;2070628;28;20184;-63
2023/05/03 03:32:22;;;;;;;3.13;2.00;;;;;;;13.95;100.00;101832.69;2070296;28;20190;-64
2023/05/03 03:33:24;;;;;;;4.17;1.73;;;;;;;13.93;100.00;101828.78;2063699;28;20497;-64
2023/05/03 03:34:24;;;;;;;4.50;2.10;;;;;;;13.90;100.00;101824.03;2072572;28;20172;-64
2023/05/03 03:35:25;;;;;;;8.03;2.10;;;;;;;13.87;100.00;101833.22;2071568;28;20479;-64
2023/05/03 03:36:26;;;;;;;5.30;2.27;;;;;;;13.60;100.00;101776.81;2071692;28;20207;-63
2023/05/03 03:37:27;;;;;;;6.07;1.63;;;;;;;13.95;100.00;101835.50;2071588;28;20192;-63
2023/05/03 03:38:27;;;;;;;4.57;2.30;;;;;;;13.91;100.00;101831.19;2071602;28;20441;-63
2023/05/03 03:39:27;;;;;;;4.57;2.30;;;;;;;13.83;100.00;101833.31;2071913;28;20242;-64
2023/05/03 03:40:28;;;;;;;5.77;2.00;;;;;;;13.18;100.00;101747.72;2071659;28;20186;-64
2023/05/03 03:41:29;;;;;;;3.00;1.80;;;;;;;13.73;100.00;101837.06;2070858;28;20181;-64
2023/05/03 03:42:29;;;;;;;4.33;2.03;;;;;;;13.81;100.00;101834.94;2071289;28;20187;-64
2023/05/03 03:43:30;;;;;;;3.17;2.00;;;;;;;13.84;100.00;101839.69;2071514;28;20298;-63
2023/05/03 03:44:30;;;;;;;8.17;2.17;;;;;;;13.85;100.00;101844.84;2071625;28;20680;-64
2023/05/03 03:45:30;;;;;;;9.20;2.20;;;;;;;13.83;100.00;101829.75;2071517;28;20198;-63
2023/05/03 03:46:31;;;;;;;8.90;2.30;;;;;;;13.90;100.00;101847.13;2071685;28;20284;-64
2023/05/03 03:47:31;;;;;;;8.90;2.30;;;;;;;13.95;100.00;101848.63;2071802;28;20248;-64
2023/05/03 03:48:32;;;;;;;4.43;2.03;;;;;;;13.98;100.00;101848.56;2071543;28;20179;-64
2023/05/03 03:49:32;;;;;;;4.07;2.13;;;;;;;13.85;100.00;101838.47;2072357;28;20177;-64
2023/05/03 03:50:33;;;;;;;3.53;1.97;;;;;;;13.94;100.00;101861.75;2072280;28;20200;-64
2023/05/03 03:51:33;;;;;;;4.70;1.80;;;;;;;13.79;100.00;101827.00;2071757;28;20283;-64
2023/05/03 03:52:34;;;;;;;4.00;2.40;;;;;;;13.93;100.00;101865.00;2071018;28;20208;-63
2023/05/03 03:53:35;;;;;;;2.90;1.93;;;;;;;13.92;100.00;101852.25;2065506;28;20274;-63
2023/05/03 03:54:35;;;;;;;9.87;2.30;;;;;;;14.02;100.00;101851.28;2063153;28;20664;-65
2023/05/03 03:55:36;;;;;;;14.70;2.90;;;;;;;13.93;100.00;101849.03;2065548;28;20564;-62
2023/05/03 03:56:36;;;;;;;18.27;3.20;;;;;;;14.14;100.00;101872.97;2071082;28;20673;-63
2023/05/03 03:57:36;;;;;;;16.87;2.53;;;;;;;14.19;100.00;101869.69;2070633;28;20185;-63
2023/05/03 03:58:37;;;;;;;13.80;2.50;;;;;;;14.21;100.00;101867.28;2071553;28;20184;-62
2023/05/03 03:59:37;;;;;;;7.37;2.20;;;;;;;14.17;100.00;101866.53;2072292;28;20188;-63
2023/05/03 04:00:38;;;;;;;6.07;2.00;;;;;;;14.03;100.00;101866.81;2072002;28;20216;-62
2023/05/03 04:01:38;;;;;;;5.30;2.17;;;;;;;14.00;100.00;101862.06;2072586;28;20251;-64
2023/05/03 04:02:38;;;;;;;6.23;2.50;;;;;;;14.04;100.00;101862.81;2073167;28;20185;-63
2023/05/03 04:03:39;;;;;;;4.30;2.30;;;;;;;13.99;100.00;101861.28;2074687;28;20173;-65
2023/05/03 04:04:39;;;;;;;5.83;2.07;;;;;;;14.05;100.00;101858.78;2073153;28;20320;-63
2023/05/03 04:05:40;;;;;;;4.33;2.20;;;;;;;14.07;100.00;101867.50;2072751;28;20181;-66
2023/05/03 04:06:40;;;;;;;5.47;2.20;;;;;;;14.06;100.00;101868.72;2072679;28;20609;-64
2023/05/03 04:07:40;;;;;;;4.63;2.17;;;;;;;14.06;100.00;101866.75;2072652;28;20265;-64
2023/05/03 04:08:41;;;;;;;4.53;2.13;;;;;;;13.97;100.00;101843.41;2073288;28;20650;-65
2023/05/03 04:09:41;;;;;;;5.43;2.20;;;;;;;14.16;100.00;101859.38;2073525;28;20193;-66
2023/05/03 04:10:42;;;;;;;6.00;2.27;;;;;;;14.16;100.00;101851.00;2072848;28;20267;-68
2023/05/03 04:11:42;;;;;;;6.77;2.13;;;;;;;14.18;100.00;101860.53;2072902;28;20173;-67
2023/05/03 04:12:43;;;;;;;4.37;2.20;;;;;;;13.45;100.00;101747.66;2072708;28;20251;-67
2023/05/03 04:13:43;;;;;;;4.30;2.20;;;;;;;14.06;100.00;101841.66;2072756;28;20663;-66
2023/05/03 04:14:44;;;;;;;5.13;2.23;;;;;;;14.16;100.00;101859.38;2074139;28;20200;-64
2023/05/03 04:15:45;;;;;;;5.17;2.20;;;;;;;14.06;100.00;101869.53;2065895;28;20668;-66
2023/05/03 04:16:45;;;;;;;6.43;2.80;;;;;;;14.07;100.00;101868.31;2070761;28;20920;-65
2023/05/03 04:17:46;;;;;;;5.00;2.70;;;;;;;13.28;100.00;101760.66;2075062;28;20647;-61
2023/05/03 04:18:46;;;;;;;6.03;2.30;;;;;;;13.56;100.00;101796.38;2077748;28;20193;-66
2023/05/03 04:19:46;;;;;;;7.13;2.57;;;;;;;14.09;100.00;101887.41;2073325;28;20334;-62
2023/05/03 04:20:48;;;;;;;5.27;2.33;;;;;;;13.88;100.00;101860.69;2072993;28;20607;-60
2023/05/03 04:21:48;;;;;;;3.87;2.10;;;;;;;14.07;100.00;101889.81;2073082;28;20173;-62
2023/05/03 04:22:48;;;;;;;5.33;2.30;;;;;;;14.13;100.00;101897.25;2073519;28;20515;-60
2023/05/03 04:23:49;;;;;;;6.37;2.30;;;;;;;14.22;100.00;101889.16;2073168;28;20196;-60
2023/05/03 04:24:49;;;;;;;8.27;2.70;;;;;;;14.26;100.00;101903.84;2066301;28;20685;-60
2023/05/03 04:25:49;;;;;;;4.73;2.20;;;;;;;14.30;100.00;101903.75;2070452;28;20682;-60
2023/05/03 04:26:50;;;;;;;3.10;1.93;;;;;;;14.33;100.00;101900.91;2072788;28;20725;-66
2023/05/03 04:27:51;;;;;;;6.20;2.47;;;;;;;14.28;100.00;101898.59;2076800;28;20643;-65
2023/05/03 04:28:51;;;;;;;5.97;2.20;;;;;;;14.38;100.00;101894.03;2072884;28;20177;-69
2023/05/03 04:29:52;;;;;;;5.03;2.47;;;;;;;13.02;100.00;101714.19;2072959;28;20182;-67
2023/05/03 04:30:52;;;;;;;6.80;2.27;;;;;;;14.05;100.00;101834.50;2073688;28;20208;-67
2023/05/03 04:31:53;;;;;;;4.80;2.20;;;;;;;14.37;100.00;101870.94;2070716;28;20670;-65
2023/05/03 04:32:54;;;;;;;6.53;2.37;;;;;;;14.43;100.00;101874.81;2073819;28;20877;-64
2023/05/03 04:33:55;;;;;;;3.87;2.23;;;;;;;14.51;100.00;101887.38;2074397;28;20296;-63
2023/05/03 04:34:56;;;;;;;10.67;2.40;;;;;;;14.53;100.00;101884.16;2071449;28;20705;-64
2023/05/03 04:35:56;;;;;;;3.63;2.00;;;;;;;14.58;100.00;101886.47;2067863;28;20916;-67
2023/05/03 04:36:57;;;;;;;4.60;2.27;;;;;;;14.56;100.00;101881.31;2067749;28;20199;-65
2023/05/03 04:37:57;;;;;;;3.90;2.67;;;;;;;14.54;100.00;101874.56;2071627;28;20200;-61
2023/05/03 04:38:58;;;;;;;6.07;2.20;;;;;;;14.47;100.00;101883.09;2069100;28;20617;-59
2023/05/03 04:39:58;;;;;;;7.63;2.87;;;;;;;14.49;100.00;101878.66;2073854;28;20677;-60
2023/05/03 04:40:59;;;;;;;4.30;2.07;;;;;;;14.55;100.00;101888.09;2070241;28;20203;-65
2023/05/03 04:42:00;;;;;;;5.77;2.43;;;;;;;14.54;100.00;101886.53;2074083;28;20205;-64
2023/05/03 04:43:00;;;;;;;3.20;2.40;;;;;;;14.54;99.60;101900.47;2067177;28;20189;-62
2023/05/03 04:44:01;;;;;;;5.23;2.50;;;;;;;14.45;99.46;101883.53;2074985;28;20424;-63